sensor_id;sensor_type;location;lat;lon;timestamp;P1;durP1;ratioP1;P2;durP2;ratioP2
3022;SDS011;1521;53.584;9.938;2023-01-10T00:00:24;39.70;;;14.07;;
3022;SDS011;1521;53.584;9.938;2023-01-10T00:02:51;47.00;;;14.57;;
3022;SDS011;1521;53.584;9.938;2023-01-10T00:05:17;34.03;;;13.10;;
3022;SDS011;1521;53.584;9.938;2023-01-10T00:07:44;28.60;;;13.47;;
3022;SDS011;1521;53.584;9.938;2023-01-10T00:10:10;28.57;;;12.87;;
3022;SDS011;1521;53.584;9.938;2023-01-10T00:12:36;26.90;;;11.70;;
3022;SDS011;1521;53.584;9.938;2023-01-10T00:15:20;37.70;;;12.93;;
3022;SDS011;1521;53.584;9.938;2023-01-10T00:17:46;38.63;;;11.90;;
3022;SDS011;1521;53.584;9.938;2023-01-10T00:20:12;29.80;;;11.20;;
3022;SDS011;1521;53.584;9.938;2023-01-10T00:22:38;29.47;;;11.27;;
3022;SDS011;1521;53.584;9.938;2023-01-10T00:25:03;29.27;;;11.53;;
3022;SDS011;1521;53.584;9.938;2023-01-10T00:27:29;31.87;;;12.00;;
3022;SDS011;1521;53.584;9.938;2023-01-10T00:29:55;29.60;;;11.00;;
3022;SDS011;1521;53.584;9.938;2023-01-10T00:32:24;31.60;;;11.20;;
3022;SDS011;1521;53.584;9.938;2023-01-10T00:34:49;26.57;;;9.83;;
3022;SDS011;1521;53.584;9.938;2023-01-10T00:37:15;29.63;;;10.10;;
3022;SDS011;1521;53.584;9.938;2023-01-10T00:39:41;28.33;;;10.97;;
3022;SDS011;1521;53.584;9.938;2023-01-10T00:42:08;32.57;;;11.47;;
3022;SDS011;1521;53.584;9.938;2023-01-10T00:44:53;29.67;;;10.10;;
3022;SDS011;1521;53.584;9.938;2023-01-10T00:47:18;22.13;;;10.77;;
3022;SDS011;1521;53.584;9.938;2023-01-10T00:49:44;27.47;;;10.23;;
3022;SDS011;1521;53.584;9.938;2023-01-10T00:52:10;29.00;;;10.43;;
3022;SDS011;1521;53.584;9.938;2023-01-10T00:54:35;30.30;;;9.90;;
3022;SDS011;1521;53.584;9.938;2023-01-10T00:57:01;31.07;;;11.30;;
3022;SDS011;1521;53.584;9.938;2023-01-10T00:59:26;27.00;;;10.70;;
3022;SDS011;1521;53.584;9.938;2023-01-10T01:01:53;29.83;;;9.20;;
3022;SDS011;1521;53.584;9.938;2023-01-10T01:04:19;22.73;;;9.60;;
3022;SDS011;1521;53.584;9.938;2023-01-10T01:06:45;22.43;;;9.63;;
3022;SDS011;1521;53.584;9.938;2023-01-10T01:09:13;19.10;;;8.77;;
3022;SDS011;1521;53.584;9.938;2023-01-10T01:11:38;30.40;;;9.57;;
3022;SDS011;1521;53.584;9.938;2023-01-10T01:14:04;24.63;;;9.50;;
3022;SDS011;1521;53.584;9.938;2023-01-10T01:16:30;24.70;;;9.00;;
3022;SDS011;1521;53.584;9.938;2023-01-10T01:18:56;22.67;;;9.53;;
3022;SDS011;1521;53.584;9.938;2023-01-10T01:21:22;21.73;;;9.30;;
3022;SDS011;1521;53.584;9.938;2023-01-10T01:23:52;24.00;;;9.40;;
3022;SDS011;1521;53.584;9.938;2023-01-10T01:26:20;19.93;;;9.27;;
3022;SDS011;1521;53.584;9.938;2023-01-10T01:28:47;25.40;;;9.20;;
3022;SDS011;1521;53.584;9.938;2023-01-10T01:31:12;19.53;;;8.60;;
3022;SDS011;1521;53.584;9.938;2023-01-10T01:33:38;21.80;;;9.00;;
3022;SDS011;1521;53.584;9.938;2023-01-10T01:36:06;26.77;;;8.90;;
3022;SDS011;1521;53.584;9.938;2023-01-10T01:38:34;30.90;;;9.30;;
3022;SDS011;1521;53.584;9.938;2023-01-10T01:41:00;33.93;;;10.07;;
3022;SDS011;1521;53.584;9.938;2023-01-10T01:43:26;27.70;;;9.77;;
3022;SDS011;1521;53.584;9.938;2023-01-10T01:45:53;23.40;;;9.30;;
3022;SDS011;1521;53.584;9.938;2023-01-10T01:48:28;20.30;;;8.80;;
3022;SDS011;1521;53.584;9.938;2023-01-10T01:51:03;28.10;;;8.90;;
3022;SDS011;1521;53.584;9.938;2023-01-10T01:53:43;22.60;;;9.03;;
3022;SDS011;1521;53.584;9.938;2023-01-10T01:56:22;27.83;;;10.00;;
3022;SDS011;1521;53.584;9.938;2023-01-10T01:58:55;26.77;;;10.60;;
3022;SDS011;1521;53.584;9.938;2023-01-10T02:01:26;25.57;;;10.10;;
3022;SDS011;1521;53.584;9.938;2023-01-10T02:03:55;24.80;;;10.07;;
3022;SDS011;1521;53.584;9.938;2023-01-10T02:06:27;22.83;;;10.10;;
3022;SDS011;1521;53.584;9.938;2023-01-10T02:08:55;28.93;;;11.40;;
3022;SDS011;1521;53.584;9.938;2023-01-10T02:11:27;23.97;;;10.47;;
3022;SDS011;1521;53.584;9.938;2023-01-10T02:13:54;27.43;;;9.93;;
3022;SDS011;1521;53.584;9.938;2023-01-10T02:16:21;22.33;;;8.83;;
3022;SDS011;1521;53.584;9.938;2023-01-10T02:18:47;34.93;;;9.80;;
3022;SDS011;1521;53.584;9.938;2023-01-10T02:27:05;21.50;;;9.10;;
3022;SDS011;1521;53.584;9.938;2023-01-10T02:32:29;18.00;;;8.90;;
3022;SDS011;1521;53.584;9.938;2023-01-10T02:38:07;25.03;;;9.60;;
3022;SDS011;1521;53.584;9.938;2023-01-10T02:40:58;25.13;;;9.80;;
3022;SDS011;1521;53.584;9.938;2023-01-10T02:43:36;29.97;;;10.13;;
3022;SDS011;1521;53.584;9.938;2023-01-10T02:46:06;21.80;;;9.50;;
3022;SDS011;1521;53.584;9.938;2023-01-10T02:48:37;20.73;;;8.90;;
3022;SDS011;1521;53.584;9.938;2023-01-10T02:51:03;22.37;;;9.07;;
3022;SDS011;1521;53.584;9.938;2023-01-10T02:53:36;21.20;;;9.40;;
3022;SDS011;1521;53.584;9.938;2023-01-10T02:56:20;20.77;;;9.37;;
3022;SDS011;1521;53.584;9.938;2023-01-10T03:01:50;23.37;;;8.43;;
3022;SDS011;1521;53.584;9.938;2023-01-10T03:08:00;27.57;;;8.53;;
3022;SDS011;1521;53.584;9.938;2023-01-10T03:10:40;26.10;;;8.90;;
3022;SDS011;1521;53.584;9.938;2023-01-10T03:13:30;25.43;;;8.70;;
3022;SDS011;1521;53.584;9.938;2023-01-10T03:16:18;20.97;;;8.43;;
3022;SDS011;1521;53.584;9.938;2023-01-10T03:18:50;20.27;;;8.10;;
3022;SDS011;1521;53.584;9.938;2023-01-10T03:21:22;22.30;;;8.37;;
3022;SDS011;1521;53.584;9.938;2023-01-10T03:23:49;18.03;;;7.20;;
3022;SDS011;1521;53.584;9.938;2023-01-10T03:26:19;18.27;;;8.03;;
3022;SDS011;1521;53.584;9.938;2023-01-10T03:29:00;18.80;;;6.60;;
3022;SDS011;1521;53.584;9.938;2023-01-10T03:31:31;27.70;;;7.90;;
3022;SDS011;1521;53.584;9.938;2023-01-10T03:34:03;20.97;;;7.87;;
3022;SDS011;1521;53.584;9.938;2023-01-10T03:36:30;24.10;;;7.77;;
3022;SDS011;1521;53.584;9.938;2023-01-10T03:39:17;24.80;;;8.40;;
3022;SDS011;1521;53.584;9.938;2023-01-10T03:42:01;22.43;;;8.10;;
3022;SDS011;1521;53.584;9.938;2023-01-10T03:45:15;16.63;;;8.00;;
3022;SDS011;1521;53.584;9.938;2023-01-10T03:47:34;18.70;;;6.73;;
3022;SDS011;1521;53.584;9.938;2023-01-10T03:50:10;21.50;;;8.07;;
3022;SDS011;1521;53.584;9.938;2023-01-10T03:52:39;16.40;;;6.60;;
3022;SDS011;1521;53.584;9.938;2023-01-10T03:55:06;23.23;;;7.80;;
3022;SDS011;1521;53.584;9.938;2023-01-10T03:57:35;16.30;;;7.53;;
3022;SDS011;1521;53.584;9.938;2023-01-10T04:00:01;21.50;;;8.67;;
3022;SDS011;1521;53.584;9.938;2023-01-10T04:02:29;20.63;;;7.23;;
3022;SDS011;1521;53.584;9.938;2023-01-10T04:04:55;14.53;;;6.73;;
3022;SDS011;1521;53.584;9.938;2023-01-10T04:07:21;19.17;;;7.20;;
3022;SDS011;1521;53.584;9.938;2023-01-10T04:09:47;21.93;;;7.03;;
3022;SDS011;1521;53.584;9.938;2023-01-10T04:12:13;13.10;;;7.70;;
3022;SDS011;1521;53.584;9.938;2023-01-10T04:14:39;15.23;;;6.03;;
3022;SDS011;1521;53.584;9.938;2023-01-10T04:17:05;18.70;;;6.73;;
3022;SDS011;1521;53.584;9.938;2023-01-10T04:19:31;26.17;;;7.30;;
3022;SDS011;1521;53.584;9.938;2023-01-10T04:21:56;18.90;;;7.33;;
3022;SDS011;1521;53.584;9.938;2023-01-10T04:24:22;14.60;;;6.40;;
3022;SDS011;1521;53.584;9.938;2023-01-10T04:26:47;18.47;;;7.17;;
3022;SDS011;1521;53.584;9.938;2023-01-10T04:29:13;17.63;;;6.77;;
3022;SDS011;1521;53.584;9.938;2023-01-10T04:31:39;18.27;;;6.63;;
3022;SDS011;1521;53.584;9.938;2023-01-10T04:34:08;17.77;;;6.77;;
3022;SDS011;1521;53.584;9.938;2023-01-10T04:36:33;16.33;;;6.80;;
3022;SDS011;1521;53.584;9.938;2023-01-10T04:39:00;25.17;;;7.00;;
3022;SDS011;1521;53.584;9.938;2023-01-10T04:41:26;16.37;;;5.90;;
3022;SDS011;1521;53.584;9.938;2023-01-10T04:43:52;15.43;;;6.57;;
3022;SDS011;1521;53.584;9.938;2023-01-10T04:46:17;19.23;;;6.30;;
3022;SDS011;1521;53.584;9.938;2023-01-10T04:48:43;16.80;;;6.00;;
3022;SDS011;1521;53.584;9.938;2023-01-10T04:51:08;21.60;;;5.80;;
3022;SDS011;1521;53.584;9.938;2023-01-10T04:53:34;17.40;;;5.13;;
3022;SDS011;1521;53.584;9.938;2023-01-10T04:56:03;17.97;;;5.80;;
3022;SDS011;1521;53.584;9.938;2023-01-10T04:58:31;18.90;;;5.40;;
3022;SDS011;1521;53.584;9.938;2023-01-10T05:01:10;19.30;;;6.10;;
3022;SDS011;1521;53.584;9.938;2023-01-10T05:03:37;14.53;;;5.80;;
3022;SDS011;1521;53.584;9.938;2023-01-10T05:06:03;18.77;;;6.73;;
3022;SDS011;1521;53.584;9.938;2023-01-10T05:08:29;19.70;;;6.10;;
3022;SDS011;1521;53.584;9.938;2023-01-10T05:10:55;23.07;;;6.13;;
3022;SDS011;1521;53.584;9.938;2023-01-10T05:13:21;24.30;;;6.00;;
3022;SDS011;1521;53.584;9.938;2023-01-10T05:15:46;17.00;;;5.43;;
3022;SDS011;1521;53.584;9.938;2023-01-10T05:18:12;31.17;;;6.10;;
3022;SDS011;1521;53.584;9.938;2023-01-10T05:20:37;14.33;;;5.50;;
3022;SDS011;1521;53.584;9.938;2023-01-10T05:23:03;12.03;;;5.00;;
3022;SDS011;1521;53.584;9.938;2023-01-10T05:25:28;20.57;;;5.73;;
3022;SDS011;1521;53.584;9.938;2023-01-10T05:27:54;19.53;;;5.63;;
3022;SDS011;1521;53.584;9.938;2023-01-10T05:30:20;24.00;;;5.20;;
3022;SDS011;1521;53.584;9.938;2023-01-10T05:32:45;17.80;;;4.80;;
3022;SDS011;1521;53.584;9.938;2023-01-10T05:35:11;11.03;;;4.60;;
3022;SDS011;1521;53.584;9.938;2023-01-10T05:37:36;16.83;;;4.63;;
3022;SDS011;1521;53.584;9.938;2023-01-10T05:40:02;15.87;;;4.67;;
3022;SDS011;1521;53.584;9.938;2023-01-10T05:42:28;20.80;;;5.40;;
3022;SDS011;1521;53.584;9.938;2023-01-10T05:44:54;18.33;;;4.80;;
3022;SDS011;1521;53.584;9.938;2023-01-10T05:47:20;20.53;;;4.70;;
3022;SDS011;1521;53.584;9.938;2023-01-10T05:49:45;20.77;;;5.67;;
3022;SDS011;1521;53.584;9.938;2023-01-10T05:52:11;23.30;;;4.30;;
3022;SDS011;1521;53.584;9.938;2023-01-10T05:54:36;15.93;;;4.80;;
3022;SDS011;1521;53.584;9.938;2023-01-10T05:57:02;14.20;;;3.70;;
3022;SDS011;1521;53.584;9.938;2023-01-10T05:59:28;20.47;;;4.33;;
3022;SDS011;1521;53.584;9.938;2023-01-10T06:01:53;19.43;;;4.50;;
3022;SDS011;1521;53.584;9.938;2023-01-10T06:04:19;20.27;;;4.53;;
3022;SDS011;1521;53.584;9.938;2023-01-10T06:06:44;23.60;;;4.57;;
3022;SDS011;1521;53.584;9.938;2023-01-10T06:09:10;17.70;;;5.13;;
3022;SDS011;1521;53.584;9.938;2023-01-10T06:11:35;20.10;;;4.47;;
3022;SDS011;1521;53.584;9.938;2023-01-10T06:14:03;17.47;;;5.23;;
3022;SDS011;1521;53.584;9.938;2023-01-10T06:16:29;20.13;;;4.53;;
3022;SDS011;1521;53.584;9.938;2023-01-10T06:18:54;13.53;;;4.37;;
3022;SDS011;1521;53.584;9.938;2023-01-10T06:21:20;22.33;;;4.50;;
3022;SDS011;1521;53.584;9.938;2023-01-10T06:23:46;25.80;;;5.60;;
3022;SDS011;1521;53.584;9.938;2023-01-10T06:26:11;17.07;;;6.77;;
3022;SDS011;1521;53.584;9.938;2023-01-10T06:28:37;18.50;;;5.10;;
3022;SDS011;1521;53.584;9.938;2023-01-10T06:31:05;20.00;;;4.83;;
3022;SDS011;1521;53.584;9.938;2023-01-10T06:33:34;20.20;;;4.47;;
3022;SDS011;1521;53.584;9.938;2023-01-10T06:36:02;22.67;;;5.43;;
3022;SDS011;1521;53.584;9.938;2023-01-10T06:38:28;21.80;;;4.43;;
3022;SDS011;1521;53.584;9.938;2023-01-10T06:40:54;16.07;;;4.47;;
3022;SDS011;1521;53.584;9.938;2023-01-10T06:43:20;22.40;;;4.57;;
3022;SDS011;1521;53.584;9.938;2023-01-10T06:45:45;17.33;;;4.50;;
3022;SDS011;1521;53.584;9.938;2023-01-10T06:48:11;16.20;;;4.43;;
3022;SDS011;1521;53.584;9.938;2023-01-10T06:50:36;21.17;;;4.43;;
3022;SDS011;1521;53.584;9.938;2023-01-10T06:53:02;20.23;;;4.70;;
3022;SDS011;1521;53.584;9.938;2023-01-10T06:55:29;14.27;;;4.93;;
3022;SDS011;1521;53.584;9.938;2023-01-10T06:57:56;15.70;;;4.73;;
3022;SDS011;1521;53.584;9.938;2023-01-10T07:00:22;25.03;;;5.20;;
3022;SDS011;1521;53.584;9.938;2023-01-10T07:02:48;17.83;;;4.90;;
3022;SDS011;1521;53.584;9.938;2023-01-10T07:05:13;24.70;;;4.97;;
3022;SDS011;1521;53.584;9.938;2023-01-10T07:07:39;17.20;;;4.80;;
3022;SDS011;1521;53.584;9.938;2023-01-10T07:10:05;16.60;;;4.03;;
3022;SDS011;1521;53.584;9.938;2023-01-10T07:12:31;14.40;;;4.97;;
3022;SDS011;1521;53.584;9.938;2023-01-10T07:14:56;12.97;;;4.83;;
3022;SDS011;1521;53.584;9.938;2023-01-10T07:17:22;24.47;;;5.27;;
3022;SDS011;1521;53.584;9.938;2023-01-10T07:19:47;12.63;;;4.80;;
3022;SDS011;1521;53.584;9.938;2023-01-10T07:22:13;17.77;;;5.27;;
3022;SDS011;1521;53.584;9.938;2023-01-10T07:24:39;21.20;;;5.30;;
3022;SDS011;1521;53.584;9.938;2023-01-10T07:27:05;15.67;;;6.67;;
3022;SDS011;1521;53.584;9.938;2023-01-10T07:29:30;23.37;;;5.93;;
3022;SDS011;1521;53.584;9.938;2023-01-10T07:31:56;12.47;;;5.70;;
3022;SDS011;1521;53.584;9.938;2023-01-10T07:34:21;13.43;;;5.47;;
3022;SDS011;1521;53.584;9.938;2023-01-10T07:36:47;23.80;;;5.67;;
3022;SDS011;1521;53.584;9.938;2023-01-10T07:39:13;23.60;;;5.67;;
3022;SDS011;1521;53.584;9.938;2023-01-10T07:41:38;15.60;;;6.00;;
3022;SDS011;1521;53.584;9.938;2023-01-10T07:44:04;23.90;;;6.27;;
3022;SDS011;1521;53.584;9.938;2023-01-10T07:46:29;24.37;;;6.70;;
3022;SDS011;1521;53.584;9.938;2023-01-10T07:48:55;23.70;;;6.73;;
3022;SDS011;1521;53.584;9.938;2023-01-10T07:51:21;22.37;;;5.73;;
3022;SDS011;1521;53.584;9.938;2023-01-10T07:53:46;23.13;;;6.33;;
3022;SDS011;1521;53.584;9.938;2023-01-10T07:56:12;16.97;;;6.27;;
3022;SDS011;1521;53.584;9.938;2023-01-10T07:58:37;21.67;;;6.80;;
3022;SDS011;1521;53.584;9.938;2023-01-10T08:01:03;23.30;;;6.43;;
3022;SDS011;1521;53.584;9.938;2023-01-10T08:03:30;20.17;;;6.90;;
3022;SDS011;1521;53.584;9.938;2023-01-10T08:06:01;19.77;;;6.10;;
3022;SDS011;1521;53.584;9.938;2023-01-10T08:08:34;29.30;;;6.40;;
3022;SDS011;1521;53.584;9.938;2023-01-10T08:11:00;27.70;;;6.90;;
3022;SDS011;1521;53.584;9.938;2023-01-10T08:13:28;22.93;;;6.60;;
3022;SDS011;1521;53.584;9.938;2023-01-10T08:15:55;20.83;;;6.53;;
3022;SDS011;1521;53.584;9.938;2023-01-10T08:18:21;22.43;;;6.70;;
3022;SDS011;1521;53.584;9.938;2023-01-10T08:20:48;21.60;;;6.10;;
3022;SDS011;1521;53.584;9.938;2023-01-10T08:23:15;20.10;;;6.23;;
3022;SDS011;1521;53.584;9.938;2023-01-10T08:25:41;24.80;;;7.13;;
3022;SDS011;1521;53.584;9.938;2023-01-10T08:28:07;21.87;;;6.87;;
3022;SDS011;1521;53.584;9.938;2023-01-10T08:30:33;15.63;;;6.67;;
3022;SDS011;1521;53.584;9.938;2023-01-10T08:33:00;27.33;;;7.00;;
3022;SDS011;1521;53.584;9.938;2023-01-10T08:35:27;21.30;;;8.20;;
3022;SDS011;1521;53.584;9.938;2023-01-10T08:37:53;22.37;;;6.30;;
3022;SDS011;1521;53.584;9.938;2023-01-10T08:40:22;18.03;;;7.63;;
3022;SDS011;1521;53.584;9.938;2023-01-10T08:42:48;22.00;;;7.27;;
3022;SDS011;1521;53.584;9.938;2023-01-10T08:45:19;17.00;;;6.37;;
3022;SDS011;1521;53.584;9.938;2023-01-10T08:47:45;24.30;;;7.63;;
3022;SDS011;1521;53.584;9.938;2023-01-10T08:50:10;20.77;;;7.63;;
3022;SDS011;1521;53.584;9.938;2023-01-10T08:52:36;25.90;;;8.40;;
3022;SDS011;1521;53.584;9.938;2023-01-10T08:55:02;22.10;;;7.80;;
3022;SDS011;1521;53.584;9.938;2023-01-10T08:57:27;15.20;;;7.33;;
3022;SDS011;1521;53.584;9.938;2023-01-10T08:59:53;30.13;;;8.13;;
3022;SDS011;1521;53.584;9.938;2023-01-10T09:02:18;22.03;;;8.93;;
3022;SDS011;1521;53.584;9.938;2023-01-10T09:04:44;21.73;;;8.00;;
3022;SDS011;1521;53.584;9.938;2023-01-10T09:07:10;19.17;;;8.13;;
3022;SDS011;1521;53.584;9.938;2023-01-10T09:09:36;23.70;;;8.50;;
3022;SDS011;1521;53.584;9.938;2023-01-10T09:12:01;25.50;;;8.70;;
3022;SDS011;1521;53.584;9.938;2023-01-10T09:14:47;27.83;;;9.33;;
3022;SDS011;1521;53.584;9.938;2023-01-10T09:17:13;25.27;;;8.80;;
3022;SDS011;1521;53.584;9.938;2023-01-10T09:19:38;24.70;;;8.57;;
3022;SDS011;1521;53.584;9.938;2023-01-10T09:22:04;24.53;;;8.50;;
3022;SDS011;1521;53.584;9.938;2023-01-10T09:24:29;32.27;;;8.77;;
3022;SDS011;1521;53.584;9.938;2023-01-10T09:26:55;25.40;;;9.33;;
3022;SDS011;1521;53.584;9.938;2023-01-10T09:29:20;21.93;;;8.83;;
3022;SDS011;1521;53.584;9.938;2023-01-10T09:31:46;24.40;;;8.07;;
3022;SDS011;1521;53.584;9.938;2023-01-10T09:34:12;22.37;;;9.57;;
3022;SDS011;1521;53.584;9.938;2023-01-10T09:36:37;18.70;;;9.13;;
3022;SDS011;1521;53.584;9.938;2023-01-10T09:39:03;21.50;;;9.23;;
3022;SDS011;1521;53.584;9.938;2023-01-10T09:47:15;18.47;;;8.83;;
3022;SDS011;1521;53.584;9.938;2023-01-10T09:49:45;18.20;;;9.20;;
3022;SDS011;1521;53.584;9.938;2023-01-10T09:52:38;28.73;;;9.13;;
3022;SDS011;1521;53.584;9.938;2023-01-10T09:58:04;32.60;;;10.30;;
3022;SDS011;1521;53.584;9.938;2023-01-10T10:00:44;27.03;;;9.40;;
3022;SDS011;1521;53.584;9.938;2023-01-10T10:05:55;24.53;;;10.20;;
3022;SDS011;1521;53.584;9.938;2023-01-10T10:08:21;31.53;;;10.27;;
3022;SDS011;1521;53.584;9.938;2023-01-10T10:13:20;26.43;;;11.10;;
3022;SDS011;1521;53.584;9.938;2023-01-10T10:15:54;23.97;;;10.10;;
3022;SDS011;1521;53.584;9.938;2023-01-10T10:18:45;36.90;;;11.57;;
3022;SDS011;1521;53.584;9.938;2023-01-10T10:29:17;21.97;;;10.27;;
3022;SDS011;1521;53.584;9.938;2023-01-10T10:34:44;24.90;;;10.53;;
3022;SDS011;1521;53.584;9.938;2023-01-10T10:37:26;27.77;;;11.23;;
3022;SDS011;1521;53.584;9.938;2023-01-10T10:40:05;30.90;;;11.90;;
3022;SDS011;1521;53.584;9.938;2023-01-10T10:42:44;27.03;;;12.20;;
3022;SDS011;1521;53.584;9.938;2023-01-10T10:48:00;38.87;;;13.50;;
3022;SDS011;1521;53.584;9.938;2023-01-10T10:50:45;30.07;;;13.63;;
3022;SDS011;1521;53.584;9.938;2023-01-10T10:53:26;31.87;;;12.80;;
3022;SDS011;1521;53.584;9.938;2023-01-10T10:55:53;28.13;;;13.10;;
3022;SDS011;1521;53.584;9.938;2023-01-10T10:58:20;31.40;;;12.67;;
3022;SDS011;1521;53.584;9.938;2023-01-10T11:00:45;30.47;;;13.50;;
3022;SDS011;1521;53.584;9.938;2023-01-10T11:03:25;29.50;;;13.30;;
3022;SDS011;1521;53.584;9.938;2023-01-10T11:05:59;26.97;;;12.33;;
3022;SDS011;1521;53.584;9.938;2023-01-10T11:08:27;32.43;;;12.80;;
3022;SDS011;1521;53.584;9.938;2023-01-10T11:10:55;26.30;;;12.27;;
3022;SDS011;1521;53.584;9.938;2023-01-10T11:16:05;29.00;;;12.07;;
3022;SDS011;1521;53.584;9.938;2023-01-10T11:18:31;23.60;;;11.70;;
3022;SDS011;1521;53.584;9.938;2023-01-10T11:21:02;26.97;;;12.87;;
3022;SDS011;1521;53.584;9.938;2023-01-10T11:26:35;32.20;;;12.17;;
3022;SDS011;1521;53.584;9.938;2023-01-10T11:29:17;34.23;;;13.07;;
3022;SDS011;1521;53.584;9.938;2023-01-10T11:31:46;37.80;;;12.20;;
3022;SDS011;1521;53.584;9.938;2023-01-10T11:34:20;31.37;;;12.40;;
3022;SDS011;1521;53.584;9.938;2023-01-10T11:36:55;24.80;;;12.43;;
3022;SDS011;1521;53.584;9.938;2023-01-10T11:39:29;30.50;;;12.67;;
3022;SDS011;1521;53.584;9.938;2023-01-10T11:41:56;26.53;;;11.70;;
3022;SDS011;1521;53.584;9.938;2023-01-10T11:44:42;27.07;;;11.60;;
3022;SDS011;1521;53.584;9.938;2023-01-10T11:47:08;34.00;;;13.23;;
3022;SDS011;1521;53.584;9.938;2023-01-10T11:49:39;28.27;;;11.67;;
3022;SDS011;1521;53.584;9.938;2023-01-10T11:52:41;30.27;;;12.50;;
3022;SDS011;1521;53.584;9.938;2023-01-10T11:54:58;28.33;;;11.40;;
3022;SDS011;1521;53.584;9.938;2023-01-10T11:57:26;40.17;;;11.90;;
3022;SDS011;1521;53.584;9.938;2023-01-10T11:59:56;30.03;;;13.57;;
3022;SDS011;1521;53.584;9.938;2023-01-10T12:02:26;30.53;;;12.67;;
3022;SDS011;1521;53.584;9.938;2023-01-10T12:04:59;23.47;;;12.50;;
3022;SDS011;1521;53.584;9.938;2023-01-10T12:07:30;31.23;;;12.33;;
3022;SDS011;1521;53.584;9.938;2023-01-10T12:10:24;27.23;;;11.90;;
3022;SDS011;1521;53.584;9.938;2023-01-10T12:12:52;30.93;;;12.30;;
3022;SDS011;1521;53.584;9.938;2023-01-10T12:15:32;32.57;;;13.50;;
3022;SDS011;1521;53.584;9.938;2023-01-10T12:17:59;31.50;;;13.10;;
3022;SDS011;1521;53.584;9.938;2023-01-10T12:20:28;29.13;;;13.13;;
3022;SDS011;1521;53.584;9.938;2023-01-10T12:23:00;28.70;;;12.10;;
3022;SDS011;1521;53.584;9.938;2023-01-10T12:26:02;30.17;;;13.20;;
3022;SDS011;1521;53.584;9.938;2023-01-10T12:28:24;33.40;;;14.00;;
3022;SDS011;1521;53.584;9.938;2023-01-10T12:30:53;30.03;;;12.60;;
3022;SDS011;1521;53.584;9.938;2023-01-10T12:33:22;30.97;;;12.30;;
3022;SDS011;1521;53.584;9.938;2023-01-10T12:35:58;31.77;;;13.30;;
3022;SDS011;1521;53.584;9.938;2023-01-10T12:38:31;26.30;;;12.47;;
3022;SDS011;1521;53.584;9.938;2023-01-10T12:41:29;27.13;;;10.77;;
3022;SDS011;1521;53.584;9.938;2023-01-10T12:44:39;31.53;;;11.97;;
3022;SDS011;1521;53.584;9.938;2023-01-10T12:47:16;35.93;;;13.47;;
3022;SDS011;1521;53.584;9.938;2023-01-10T12:52:43;29.27;;;13.63;;
3022;SDS011;1521;53.584;9.938;2023-01-10T12:55:42;40.33;;;13.37;;
3022;SDS011;1521;53.584;9.938;2023-01-10T12:58:16;30.93;;;13.60;;
3022;SDS011;1521;53.584;9.938;2023-01-10T13:00:47;27.60;;;13.50;;
3022;SDS011;1521;53.584;9.938;2023-01-10T13:03:20;27.83;;;13.17;;
3022;SDS011;1521;53.584;9.938;2023-01-10T13:05:48;29.20;;;13.70;;
3022;SDS011;1521;53.584;9.938;2023-01-10T13:08:16;35.00;;;13.83;;
3022;SDS011;1521;53.584;9.938;2023-01-10T13:10:46;30.70;;;14.33;;
3022;SDS011;1521;53.584;9.938;2023-01-10T13:16:09;23.67;;;12.80;;
3022;SDS011;1521;53.584;9.938;2023-01-10T13:18:58;22.77;;;11.97;;
3022;SDS011;1521;53.584;9.938;2023-01-10T13:21:28;27.03;;;13.17;;
3022;SDS011;1521;53.584;9.938;2023-01-10T13:23:59;28.03;;;13.50;;
3022;SDS011;1521;53.584;9.938;2023-01-10T13:29:29;28.67;;;13.20;;
3022;SDS011;1521;53.584;9.938;2023-01-10T13:32:15;26.60;;;12.60;;
3022;SDS011;1521;53.584;9.938;2023-01-10T13:34:47;23.73;;;13.20;;
3022;SDS011;1521;53.584;9.938;2023-01-10T13:37:23;27.57;;;12.80;;
3022;SDS011;1521;53.584;9.938;2023-01-10T13:39:55;26.03;;;12.00;;
3022;SDS011;1521;53.584;9.938;2023-01-10T13:42:27;31.37;;;13.17;;
3022;SDS011;1521;53.584;9.938;2023-01-10T13:45:17;27.90;;;11.83;;
3022;SDS011;1521;53.584;9.938;2023-01-10T14:04:19;32.13;;;11.97;;
3022;SDS011;1521;53.584;9.938;2023-01-10T14:07:01;30.70;;;11.53;;
3022;SDS011;1521;53.584;9.938;2023-01-10T14:09:36;32.87;;;11.97;;
3022;SDS011;1521;53.584;9.938;2023-01-10T14:12:07;27.23;;;11.57;;
3022;SDS011;1521;53.584;9.938;2023-01-10T14:14:49;27.93;;;11.70;;
3022;SDS011;1521;53.584;9.938;2023-01-10T14:17:35;27.83;;;11.43;;
3022;SDS011;1521;53.584;9.938;2023-01-10T14:22:35;28.17;;;10.70;;
3022;SDS011;1521;53.584;9.938;2023-01-10T14:25:18;18.33;;;9.70;;
3022;SDS011;1521;53.584;9.938;2023-01-10T14:27:46;27.47;;;10.30;;
3022;SDS011;1521;53.584;9.938;2023-01-10T14:33:42;19.60;;;8.80;;
3022;SDS011;1521;53.584;9.938;2023-01-10T14:35:49;23.37;;;9.73;;
3022;SDS011;1521;53.584;9.938;2023-01-10T14:38:26;32.33;;;8.80;;
3022;SDS011;1521;53.584;9.938;2023-01-10T14:40:56;20.10;;;9.17;;
3022;SDS011;1521;53.584;9.938;2023-01-10T14:43:44;22.57;;;10.10;;
3022;SDS011;1521;53.584;9.938;2023-01-10T14:46:19;21.43;;;8.67;;
3022;SDS011;1521;53.584;9.938;2023-01-10T14:48:49;22.10;;;8.47;;
3022;SDS011;1521;53.584;9.938;2023-01-10T14:51:21;22.70;;;9.13;;
3022;SDS011;1521;53.584;9.938;2023-01-10T14:53:54;21.47;;;7.77;;
3022;SDS011;1521;53.584;9.938;2023-01-10T14:56:25;20.77;;;7.60;;
3022;SDS011;1521;53.584;9.938;2023-01-10T14:58:53;21.50;;;7.23;;
3022;SDS011;1521;53.584;9.938;2023-01-10T15:01:22;17.80;;;6.93;;
3022;SDS011;1521;53.584;9.938;2023-01-10T15:03:50;15.37;;;7.37;;
3022;SDS011;1521;53.584;9.938;2023-01-10T15:06:17;16.30;;;7.83;;
3022;SDS011;1521;53.584;9.938;2023-01-10T15:08:43;19.60;;;8.03;;
3022;SDS011;1521;53.584;9.938;2023-01-10T15:11:09;29.93;;;8.33;;
3022;SDS011;1521;53.584;9.938;2023-01-10T15:13:43;19.73;;;8.10;;
3022;SDS011;1521;53.584;9.938;2023-01-10T15:16:21;21.80;;;7.90;;
3022;SDS011;1521;53.584;9.938;2023-01-10T15:18:48;17.03;;;8.10;;
3022;SDS011;1521;53.584;9.938;2023-01-10T15:21:15;26.40;;;8.73;;
3022;SDS011;1521;53.584;9.938;2023-01-10T15:23:44;26.80;;;8.20;;
3022;SDS011;1521;53.584;9.938;2023-01-10T15:26:15;19.37;;;7.67;;
3022;SDS011;1521;53.584;9.938;2023-01-10T15:29:08;22.23;;;8.47;;
3022;SDS011;1521;53.584;9.938;2023-01-10T15:31:37;20.97;;;8.47;;
3022;SDS011;1521;53.584;9.938;2023-01-10T15:34:12;21.30;;;8.27;;
3022;SDS011;1521;53.584;9.938;2023-01-10T15:36:42;19.60;;;7.53;;
3022;SDS011;1521;53.584;9.938;2023-01-10T15:39:18;28.33;;;8.57;;
3022;SDS011;1521;53.584;9.938;2023-01-10T15:41:46;19.53;;;8.87;;
3022;SDS011;1521;53.584;9.938;2023-01-10T15:44:22;29.37;;;9.00;;
3022;SDS011;1521;53.584;9.938;2023-01-10T15:46:58;22.33;;;9.10;;
3022;SDS011;1521;53.584;9.938;2023-01-10T15:49:24;30.30;;;9.40;;
3022;SDS011;1521;53.584;9.938;2023-01-10T15:51:50;24.50;;;10.00;;
3022;SDS011;1521;53.584;9.938;2023-01-10T16:01:53;26.13;;;10.70;;
3022;SDS011;1521;53.584;9.938;2023-01-10T16:04:22;24.83;;;9.90;;
3022;SDS011;1521;53.584;9.938;2023-01-10T16:06:48;39.40;;;10.07;;
3022;SDS011;1521;53.584;9.938;2023-01-10T16:09:19;32.10;;;11.30;;
3022;SDS011;1521;53.584;9.938;2023-01-10T16:14:32;30.70;;;10.60;;
3022;SDS011;1521;53.584;9.938;2023-01-10T16:16:58;25.07;;;10.00;;
3022;SDS011;1521;53.584;9.938;2023-01-10T16:19:25;28.43;;;10.67;;
3022;SDS011;1521;53.584;9.938;2023-01-10T16:21:51;40.77;;;13.00;;
3022;SDS011;1521;53.584;9.938;2023-01-10T16:24:23;28.23;;;11.03;;
3022;SDS011;1521;53.584;9.938;2023-01-10T16:26:50;31.23;;;11.30;;
3022;SDS011;1521;53.584;9.938;2023-01-10T16:29:16;24.37;;;10.13;;
3022;SDS011;1521;53.584;9.938;2023-01-10T16:31:44;25.35;;;11.30;;
3022;SDS011;1521;53.584;9.938;2023-01-10T16:34:10;30.90;;;11.20;;
3022;SDS011;1521;53.584;9.938;2023-01-10T16:36:36;25.33;;;11.20;;
3022;SDS011;1521;53.584;9.938;2023-01-10T16:39:03;44.87;;;10.70;;
3022;SDS011;1521;53.584;9.938;2023-01-10T16:41:32;26.83;;;10.10;;
3022;SDS011;1521;53.584;9.938;2023-01-10T16:44:16;31.03;;;10.40;;